• Join FlightAware (Why Join?)
  • Login
  • US Flag 
09:21AM EDT


 

Airport Tracker/Info


-or-


 

Live Flight TrackerFlight Track Log ✈ N100WX ✈ 09-Apr-2013 ✈ KBED - KSCH

Flight Track Log - Related Links

Times and Time Zones

All times are in EDT time to prevent confusion due to time zone crossing. See the N100WX flight status page for this flight to view local times or setup timezone preferences in your user account.

Time Position Orientation Groundspeed Altitude Reporting Facility
EDT Latitude Longitude Course Direction KTS MPH feet Rate Location/Type
09:47AM 42.4667 -71.3167 304° West 166 191 1,000  Level KA90
09:47AM 42.4833 -71.3500 304° West 164 189 2,800 2,460 Climbing KA90
09:49AM 42.5411 -71.3664 348° North 229 264 6,800 2,580 Climbing Boston Center
09:50AM 42.5933 -71.3600 North 193 222 9,500 2,400 Climbing Boston Center
09:51AM 42.6019 -71.4106 283° West 138 159 11,600 1,500 Climbing Boston Center
09:52AM 42.6111 -71.4950 278° West 176 203 12,600 1,320 Climbing Boston Center
09:53AM 42.6200 -71.5739 279° West 230 265 14,300 1,920 Climbing Boston Center
09:54AM 42.6292 -71.6753 277° West 245 282 16,400 1,920 Climbing Boston Center
09:55AM 42.6400 -71.7542 281° West 245 282 18,200 1,680 Climbing Boston Center
09:56AM 42.6511 -71.8586 278° West 252 290 19,800 900 Climbing Boston Center
09:57AM 42.6597 -71.9433 278° West 263 303 20,000 60 Climbing Boston Center
09:58AM 42.6728 -72.0503 279° West 275 316 20,000  Level Boston Center
09:59AM 42.6856 -72.1747 278° West 275 316 20,000  Level Boston Center
10:00AM 42.6961 -72.2761 278° West 275 316 20,000  Level Boston Center
10:01AM 42.7047 -72.3808 276° West 275 316 20,000  Level Boston Center
10:02AM 42.7172 -72.4825 280° West 275 316 20,000  Level Boston Center
10:03AM 42.7256 -72.5786 277° West 275 316 20,000  Level Boston Center
10:04AM 42.7356 -72.6747 278° West 268 308 20,000  Level Boston Center
10:05AM 42.7481 -72.7794 279° West 273 314 20,000  Level Boston Center
10:06AM 42.7581 -72.8783 278° West 279 321 20,000 -480 Level Boston Center
10:07AM 42.7681 -72.9747 278° West 273 314 19,100 -1,140 Descending Boston Center
10:08AM 42.7739 -73.0708 275° West 262 302 17,800 -1,260 Descending Boston Center
10:09AM 42.7858 -73.1586 281° West 229 264 16,700 -1,380 Descending Boston Center
10:10AM 42.8125 -73.2242 299° West 219 252 15,100 -1,740 Descending Boston Center
10:11AM 42.8453 -73.3094 298° West 219 252 13,200 -1,680 Descending Boston Center
10:12AM 42.8675 -73.3719 296° West 219 252 11,800 -1,920 Descending Boston Center
10:12AM 42.8819 -73.4033 302° West 225 259 10,900 -2,220 Descending Boston Center
10:13AM 42.9022 -73.4578 297° West 219 252 9,600 -1,740 Descending Boston Center
10:13AM 42.9083 -73.4747 296° West 214 246 9,200 -1,980 Descending Boston Center
10:14AM 42.9289 -73.5233 300° West 219 252 7,600 -2,160 Descending Boston Center
10:14AM 42.9411 -73.5547 298° West 220 253 6,800 -1,680 Descending Boston Center
10:15AM 42.9614 -73.6061 298° West 226 260 5,900 -1,380 Descending Boston Center
10:15AM 42.9733 -73.6433 294° West 239 275 5,400 -960 Descending Boston Center
10:16AM 42.9897 -73.6833 299° West 226 260 4,800 -900 Descending Boston Center
10:17AM 43.0136 -73.7689 291° West 155 178 3,600 -780 Descending Boston Center
10:18AM 42.9819 -73.8108 224° Southwest 159 183 3,200 -720 Descending Boston Center
10:19AM 42.9322 -73.7869 161° South 191 220 2,200 -600 Descending Boston Center
10:20AM 42.8822 -73.7889 182° South 179 206 2,000 -120 Descending Boston Center
10:21AM 42.8528 -73.8108 209° Southwest 108 124 2,000 -300 Level Boston Center
10:22AM 42.8522 -73.8475 269° West 90 104 1,500 -540 Descending Boston Center
10:23AM 42.8519 -73.8844 269° West 91 105 1,000 -420 Descending Boston Center
10:24AM 42.8472 -73.9156 258° West 97 112 700 -360 Descending Boston Center
10:26AM 42.8526 -73.9290 298° West  Level Estimated